createdAt,value
2019-02-06T00:00:59.698Z,86.08
2019-02-06T00:03:30.117Z,86.18
2019-02-06T00:06:00.570Z,85.83
2019-02-06T00:08:31.143Z,85.90
2019-02-06T00:11:01.598Z,86.39
2019-02-06T00:13:32.482Z,86.61
2019-02-06T00:16:03.030Z,87.01
2019-02-06T00:18:34.276Z,86.68
2019-02-06T00:21:05.102Z,86.54
2019-02-06T00:23:35.550Z,86.67
2019-02-06T00:26:06.358Z,86.24
2019-02-06T00:28:36.983Z,86.94
2019-02-06T00:31:07.430Z,86.92
2019-02-06T00:33:38.271Z,86.71
2019-02-06T00:36:09.107Z,87.34
2019-02-06T00:38:39.615Z,87.27
2019-02-06T00:41:10.440Z,86.71
2019-02-06T00:43:40.884Z,86.44
2019-02-06T00:46:11.711Z,87.07
2019-02-06T00:48:42.322Z,87.43
2019-02-06T00:51:13.257Z,87.48
2019-02-06T00:53:43.707Z,87.18
2019-02-06T00:56:14.148Z,87.16
2019-02-06T00:58:44.632Z,86.75
2019-02-06T01:01:15.068Z,86.56
2019-02-06T01:03:45.562Z,86.95
2019-02-06T01:06:16.379Z,87.30
2019-02-06T01:23:04.052Z,88.35
2019-02-06T01:25:34.571Z,88.94
2019-02-06T01:28:05.411Z,88.76
2019-02-06T01:30:46.472Z,88.79
2019-02-06T01:33:17.214Z,89.11
2019-02-06T01:35:50.225Z,89.15
2019-02-06T01:38:20.725Z,89.34
2019-02-06T01:40:51.525Z,89.39
2019-02-06T01:43:22.280Z,89.35
2019-02-06T01:45:53.102Z,89.30
2019-02-06T01:48:23.595Z,89.55
2019-02-06T01:50:54.041Z,89.53
2019-02-06T01:53:24.904Z,89.48
2019-02-06T01:55:55.374Z,89.81
2019-02-06T01:58:25.861Z,89.46
2019-02-06T02:00:57.001Z,89.73
2019-02-06T02:03:27.447Z,90.11
2019-02-06T02:06:02.320Z,89.72
2019-02-06T02:08:32.638Z,89.78
2019-02-06T02:11:03.360Z,89.88
2019-02-06T02:13:33.861Z,89.72
2019-02-06T02:16:04.849Z,89.52
2019-02-06T02:18:35.300Z,89.06
2019-02-06T02:21:06.178Z,89.02
2019-02-06T02:23:36.619Z,88.95
2019-02-06T02:26:07.127Z,88.92
2019-02-06T02:28:37.578Z,89.21
2019-02-06T02:31:08.819Z,88.69
2019-02-06T02:33:39.338Z,88.81
2019-02-06T02:36:15.721Z,88.65
2019-02-06T02:38:41.964Z,88.48
2019-02-06T02:41:12.400Z,88.77
2019-02-06T02:43:42.862Z,88.84
2019-02-06T02:46:13.322Z,88.48
2019-02-06T02:48:43.769Z,88.63
2019-02-06T02:51:14.520Z,88.21
2019-02-06T02:53:44.962Z,88.18
2019-02-06T02:56:15.453Z,88.19
2019-02-06T02:58:46.079Z,88.00
2019-02-06T03:01:34.827Z,88.03
2019-02-06T03:04:11.592Z,88.19
2019-02-06T03:06:43.888Z,88.48
2019-02-06T03:09:14.447Z,88.28
2019-02-06T03:11:44.887Z,88.45
2019-02-06T03:14:15.432Z,88.17
2019-02-06T03:16:45.874Z,88.26
2019-02-06T03:19:17.311Z,88.62
2019-02-06T03:21:48.091Z,88.45
2019-02-06T03:24:18.845Z,88.70
2019-02-06T03:26:49.689Z,88.52
2019-02-06T03:29:20.132Z,88.36
2019-02-06T03:31:50.617Z,88.44
2019-02-06T03:34:21.072Z,88.70
2019-02-06T03:36:51.915Z,88.66
2019-02-06T03:39:22.386Z,89.14
2019-02-06T03:41:53.465Z,89.19
2019-02-06T03:44:23.958Z,89.53
2019-02-06T03:46:54.406Z,89.36
2019-02-06T03:49:24.843Z,89.72
2019-02-06T03:51:55.407Z,89.75
2019-02-06T03:54:25.842Z,89.92
2019-02-06T03:56:56.329Z,89.86
2019-02-06T03:59:27.849Z,89.76
2019-02-06T04:01:58.574Z,89.68
2019-02-06T04:04:29.044Z,89.90
2019-02-06T04:07:01.250Z,89.84
2019-02-06T04:09:32.531Z,89.30
2019-02-06T04:12:03.296Z,89.03
2019-02-06T04:14:34.098Z,89.10
2019-02-06T04:17:04.583Z,88.59
2019-02-06T04:19:35.145Z,88.40
2019-02-06T04:22:05.802Z,88.36
2019-02-06T04:24:36.632Z,88.76
2019-02-06T04:27:07.069Z,88.89
2019-02-06T04:29:37.541Z,89.22
2019-02-06T04:32:07.984Z,89.16
2019-02-06T04:34:38.477Z,89.15
2019-02-06T04:37:09.128Z,88.83
2019-02-06T04:39:39.922Z,88.86
2019-02-06T04:42:10.399Z,88.87
2019-02-06T04:44:40.855Z,87.98
2019-02-06T04:47:11.622Z,88.22
2019-02-06T04:49:42.545Z,88.32
2019-02-06T04:52:13.013Z,88.09
2019-02-06T04:54:43.457Z,87.31
2019-02-06T04:57:13.903Z,87.57
2019-02-06T04:59:44.406Z,87.60
2019-02-06T05:02:14.838Z,87.49
2019-02-06T05:04:45.662Z,87.49
2019-02-06T05:07:19.233Z,87.70
2019-02-06T05:09:48.265Z,87.53
2019-02-06T05:12:18.759Z,87.62
2019-02-06T05:14:49.639Z,87.62
2019-02-06T05:17:20.086Z,87.47
2019-02-06T05:19:50.714Z,87.66
2019-02-06T05:22:21.170Z,87.57
2019-02-06T05:24:51.720Z,87.57
2019-02-06T05:27:22.458Z,87.70
2019-02-06T05:29:53.003Z,87.58
2019-02-06T05:32:23.754Z,87.81
2019-02-06T05:34:54.813Z,88.00
2019-02-06T05:37:32.060Z,87.42
2019-02-06T05:39:57.490Z,87.55
2019-02-06T05:42:27.998Z,87.47
2019-02-06T05:44:58.470Z,87.31
2019-02-06T05:47:28.912Z,87.39
2019-02-06T05:49:59.417Z,87.59
2019-02-06T05:52:30.747Z,87.81
2019-02-06T05:55:04.485Z,87.20
2019-02-06T05:57:33.358Z,87.29
2019-02-06T06:00:05.297Z,87.39
2019-02-06T06:02:35.795Z,87.02
2019-02-06T06:05:06.891Z,87.12
2019-02-06T06:07:45.389Z,87.39
2019-02-06T06:10:12.394Z,86.99
2019-02-06T06:12:43.387Z,87.08
2019-02-06T06:15:15.668Z,86.99
2019-02-06T06:17:46.467Z,86.89
2019-02-06T06:20:17.781Z,87.27
2019-02-06T06:22:48.362Z,87.25
2019-02-06T06:25:20.603Z,87.13
2019-02-06T06:27:51.460Z,87.23
2019-02-06T06:30:22.150Z,87.37
2019-02-06T06:32:52.576Z,87.17
2019-02-06T06:35:23.061Z,87.20
2019-02-06T06:38:02.341Z,87.21
2019-02-06T06:40:26.052Z,86.93
2019-02-06T06:42:56.887Z,87.00
2019-02-06T06:45:27.326Z,87.00
2019-02-06T06:47:57.794Z,87.25
2019-02-06T06:50:28.339Z,87.38
2019-02-06T06:52:59.142Z,87.37
2019-02-06T06:55:29.863Z,87.31
2019-02-06T06:58:00.302Z,87.16
2019-02-06T07:00:31.807Z,87.11
2019-02-06T07:03:02.305Z,87.16
2019-02-06T07:05:33.751Z,87.11
2019-02-06T07:08:11.223Z,87.12
2019-02-06T07:10:37.221Z,86.58
2019-02-06T07:13:08.212Z,86.43
2019-02-06T07:15:38.630Z,86.58
2019-02-06T07:18:09.114Z,86.61
2019-02-06T07:20:39.878Z,86.56
2019-02-06T07:23:10.331Z,86.41
2019-02-06T07:25:41.147Z,85.95
2019-02-06T07:28:14.366Z,85.92
2019-02-06T07:30:45.177Z,85.89
2019-02-06T07:33:16.019Z,85.82
2019-02-06T07:35:46.647Z,86.22
2019-02-06T07:38:24.303Z,86.03
2019-02-06T07:40:49.267Z,85.54
2019-02-06T07:43:19.746Z,85.54
2019-02-06T07:45:50.184Z,85.59
2019-02-06T07:48:21.000Z,85.28
2019-02-06T07:50:51.657Z,84.83
2019-02-06T07:53:22.106Z,84.96
2019-02-06T07:55:52.586Z,84.87
2019-02-06T07:58:23.191Z,84.83
2019-02-06T08:00:53.632Z,84.50
2019-02-06T08:03:24.203Z,84.02
2019-02-06T08:05:55.080Z,84.15
2019-02-06T08:08:35.731Z,84.06
2019-02-06T08:10:57.706Z,84.04
2019-02-06T08:13:28.147Z,83.65
2019-02-06T08:15:59.462Z,83.44
2019-02-06T08:18:30.436Z,83.38
2019-02-06T08:21:01.216Z,83.42
2019-02-06T08:23:32.078Z,83.29
2019-02-06T08:26:02.513Z,82.99
2019-02-06T08:28:32.979Z,82.99
2019-02-06T08:31:03.605Z,82.39
2019-02-06T08:33:34.091Z,81.96
2019-02-06T08:36:04.907Z,81.86
2019-02-06T08:38:47.052Z,81.17
2019-02-06T08:41:07.954Z,81.25
2019-02-06T08:43:38.583Z,80.91
2019-02-06T08:46:09.054Z,80.38
2019-02-06T08:48:39.503Z,80.56
2019-02-06T08:51:09.986Z,80.18
2019-02-06T08:53:40.431Z,80.39
2019-02-06T08:56:11.479Z,80.40
2019-02-06T08:58:41.948Z,79.54
2019-02-06T09:01:13.851Z,79.48
2019-02-06T09:03:44.693Z,79.18
2019-02-06T09:06:15.834Z,79.08
2019-02-06T09:08:46.877Z,78.99
2019-02-06T09:11:19.050Z,78.93
2019-02-06T09:13:50.107Z,79.22
2019-02-06T09:16:20.947Z,78.69
2019-02-06T09:18:51.489Z,78.52
2019-02-06T09:21:22.301Z,77.90
2019-02-06T09:23:53.450Z,78.37
2019-02-06T09:26:24.790Z,78.66
2019-02-06T09:28:55.422Z,78.16
2019-02-06T09:31:26.170Z,78.67
2019-02-06T09:33:56.617Z,79.09
2019-02-06T09:36:27.116Z,79.02
2019-02-06T09:38:57.599Z,78.88
2019-02-06T09:41:28.046Z,79.27
2019-02-06T09:43:58.538Z,78.85
2019-02-06T09:46:28.979Z,79.82
2019-02-06T09:48:59.429Z,79.52
2019-02-06T09:51:30.119Z,78.99
2019-02-06T09:54:00.535Z,78.36
2019-02-06T09:56:30.974Z,78.42
2019-02-06T09:59:01.601Z,77.93
2019-02-06T10:01:32.066Z,77.82
2019-02-06T10:04:02.884Z,77.68
2019-02-06T10:06:33.758Z,77.37
2019-02-06T10:09:08.188Z,77.63
2019-02-06T10:11:38.719Z,78.49
2019-02-06T10:14:09.373Z,77.10
2019-02-06T10:16:39.891Z,77.36
2019-02-06T10:19:10.603Z,77.01
2019-02-06T10:21:41.094Z,77.44
2019-02-06T10:24:11.698Z,77.36
2019-02-06T10:26:42.136Z,77.82
2019-02-06T10:29:12.709Z,77.61
2019-02-06T10:31:43.148Z,78.29
2019-02-06T10:34:13.590Z,77.64
2019-02-06T10:36:44.087Z,77.60
2019-02-06T10:39:14.582Z,77.28
2019-02-06T10:41:45.023Z,77.69
2019-02-06T10:44:15.508Z,78.02
2019-02-06T10:46:46.426Z,77.32
2019-02-06T10:49:16.869Z,77.82
2019-02-06T10:51:47.364Z,77.24
2019-02-06T10:54:18.136Z,77.26
2019-02-06T10:56:48.587Z,77.25
2019-02-06T10:59:19.407Z,76.64
2019-02-06T11:01:50.036Z,77.12
2019-02-06T11:04:20.475Z,76.68
2019-02-06T11:06:50.984Z,76.44
2019-02-06T11:09:21.429Z,77.03
2019-02-06T11:11:52.266Z,76.94
2019-02-06T11:14:22.985Z,76.94
2019-02-06T11:16:53.827Z,75.33
2019-02-06T11:19:24.271Z,76.45
2019-02-06T11:21:55.096Z,76.58
2019-02-06T11:24:26.831Z,76.07
2019-02-06T11:26:58.118Z,75.49
2019-02-06T11:29:28.610Z,75.90
2019-02-06T11:31:59.426Z,75.19
2019-02-06T11:34:29.969Z,75.13
2019-02-06T11:37:00.480Z,74.53
2019-02-06T11:39:30.933Z,74.64
2019-02-06T11:42:01.470Z,74.30
2019-02-06T11:44:31.957Z,74.65
2019-02-06T11:47:02.397Z,73.73
2019-02-06T11:49:38.518Z,73.95
2019-02-06T11:52:09.240Z,73.97
2019-02-06T11:54:40.182Z,72.76
2019-02-06T11:57:10.628Z,73.59
2019-02-06T11:59:41.084Z,73.01
2019-02-06T12:02:12.191Z,72.77
2019-02-06T12:04:43.147Z,73.11
2019-02-06T12:07:13.590Z,73.40
2019-02-06T12:09:44.035Z,72.40
2019-02-06T12:12:14.548Z,72.88
2019-02-06T12:14:44.992Z,73.20
2019-02-06T12:17:15.436Z,73.34
2019-02-06T12:19:46.056Z,72.93
2019-02-06T12:22:16.502Z,71.89
2019-02-06T12:24:47.834Z,72.52
2019-02-06T12:27:18.708Z,71.89
2019-02-06T12:29:49.614Z,70.75
2019-02-06T12:32:20.064Z,71.88
2019-02-06T12:34:50.558Z,71.63
2019-02-06T12:37:21.385Z,71.15
2019-02-06T12:39:51.883Z,72.10
2019-02-06T12:42:22.780Z,71.56
2019-02-06T12:44:53.221Z,71.41
2019-02-06T12:47:26.780Z,70.64
2019-02-06T12:49:56.570Z,69.82
2019-02-06T12:52:27.020Z,69.50
2019-02-06T12:54:57.793Z,69.37
2019-02-06T12:57:36.457Z,69.73
2019-02-06T13:00:00.431Z,70.51
2019-02-06T13:02:30.881Z,68.79
2019-02-06T13:05:01.705Z,69.14
2019-02-06T13:07:33.396Z,68.63
2019-02-06T13:10:03.855Z,69.20
2019-02-06T13:12:34.343Z,68.76
2019-02-06T13:15:05.787Z,68.18
2019-02-06T13:17:36.230Z,67.28
2019-02-06T13:20:10.166Z,66.70
2019-02-06T13:22:40.611Z,66.97
2019-02-06T13:25:11.511Z,66.92
2019-02-06T13:27:42.002Z,68.07
2019-02-06T13:30:24.829Z,68.23
2019-02-06T13:32:55.618Z,67.77
2019-02-06T13:35:26.068Z,66.64
2019-02-06T13:37:56.522Z,65.43
2019-02-06T13:40:28.053Z,67.12
2019-02-06T13:42:58.558Z,67.31
2019-02-06T13:45:35.003Z,67.12
2019-02-06T13:48:05.809Z,66.27
2019-02-06T13:50:36.724Z,66.69
2019-02-06T13:53:07.600Z,64.94
2019-02-06T13:55:38.171Z,65.87
2019-02-06T13:58:19.708Z,64.72
2019-02-06T14:00:41.882Z,65.94
2019-02-06T14:03:12.322Z,65.91
2019-02-06T14:05:46.719Z,66.27
2019-02-06T14:08:17.652Z,65.33
2019-02-06T14:10:58.407Z,64.34
2019-02-06T14:13:23.007Z,65.34
2019-02-06T14:15:53.565Z,65.06
2019-02-06T14:18:24.126Z,64.49
2019-02-06T14:20:55.116Z,64.25
2019-02-06T14:23:36.194Z,63.44
2019-02-06T14:26:22.184Z,63.32
2019-02-06T14:29:48.808Z,62.96
2019-02-06T14:33:07.497Z,64.30
2019-02-06T14:36:31.014Z,65.11
2019-02-06T14:39:27.328Z,64.03
2019-02-06T14:42:27.191Z,63.41
2019-02-06T14:45:34.687Z,64.15
2019-02-06T14:48:34.170Z,64.78
2019-02-06T14:51:45.627Z,65.33
2019-02-06T14:54:51.502Z,63.10
2019-02-06T14:58:17.799Z,65.28
2019-02-06T15:01:17.099Z,63.67
2019-02-06T15:03:59.493Z,64.46
2019-02-06T15:07:13.959Z,63.59
2019-02-06T15:10:43.214Z,64.46
2019-02-06T15:14:03.729Z,63.16
2019-02-06T15:17:21.685Z,64.82
2019-02-06T15:20:39.494Z,65.26
2019-02-06T15:23:36.425Z,63.21
2019-02-06T15:27:11.013Z,65.08
2019-02-06T15:30:43.843Z,63.69
2019-02-06T15:34:06.530Z,63.78
2019-02-06T15:37:03.175Z,64.01
2019-02-06T15:39:59.699Z,64.34
2019-02-06T15:43:11.327Z,63.23
2019-02-06T15:46:24.738Z,64.74
2019-02-06T15:49:47.500Z,64.76
2019-02-06T15:52:48.896Z,63.87
2019-02-06T15:56:09.671Z,64.23
2019-02-06T15:59:20.775Z,64.47
2019-02-06T16:02:30.756Z,64.28
2019-02-06T16:05:32.914Z,63.69
2019-02-06T16:08:56.640Z,62.88
2019-02-06T16:12:16.236Z,63.49
2019-02-06T16:15:16.557Z,63.29
2019-02-06T16:18:20.606Z,64.28
2019-02-06T16:21:25.163Z,63.13
2019-02-06T16:24:15.207Z,64.17
2019-02-06T16:27:16.798Z,62.53
2019-02-06T16:30:21.043Z,62.38
2019-02-06T16:33:33.736Z,64.80
2019-02-06T16:36:33.096Z,64.98
2019-02-06T16:39:57.016Z,64.46
2019-02-06T16:43:14.195Z,64.77
2019-02-06T16:46:14.503Z,64.97
2019-02-06T16:49:26.362Z,63.51
2019-02-06T16:52:33.835Z,64.19
2019-02-06T16:55:34.919Z,64.28
2019-02-06T16:58:40.280Z,63.25
2019-02-06T17:01:58.834Z,64.65
2019-02-06T17:04:35.648Z,64.80
2019-02-06T17:07:31.694Z,63.63
2019-02-06T17:10:36.192Z,63.32
2019-02-06T17:13:46.791Z,62.97
2019-02-06T17:16:46.141Z,62.31
2019-02-06T17:19:42.710Z,62.56
2019-02-06T17:22:34.600Z,62.10
2019-02-06T17:25:49.132Z,62.30
2019-02-06T17:28:57.358Z,62.91
2019-02-06T17:32:07.155Z,62.95
2019-02-06T17:35:39.755Z,64.39
2019-02-06T17:38:52.935Z,64.37
2019-02-06T17:41:54.686Z,63.75
2019-02-06T17:45:19.702Z,63.85
2019-02-06T17:48:13.223Z,64.71
2019-02-06T17:50:58.229Z,64.69
2019-02-06T17:53:43.149Z,64.40
2019-02-06T17:56:13.717Z,64.35
2019-02-06T17:58:45.126Z,63.15
2019-02-06T18:01:39.692Z,64.44
2019-02-06T18:04:16.018Z,63.86
2019-02-06T18:06:46.508Z,64.60
2019-02-06T18:09:18.396Z,63.60
2019-02-06T18:11:51.751Z,64.27
2019-02-06T18:14:22.674Z,63.56
2019-02-06T18:16:53.145Z,63.58
2019-02-06T18:19:23.653Z,63.45
2019-02-06T18:21:54.757Z,64.40
2019-02-06T18:24:25.550Z,64.11
2019-02-06T18:26:56.517Z,62.98
2019-02-06T18:29:27.348Z,63.26
2019-02-06T18:31:58.169Z,62.56
2019-02-06T18:34:28.662Z,63.55
2019-02-06T18:36:59.499Z,63.64
2019-02-06T18:39:30.047Z,64.68
2019-02-06T18:42:01.210Z,64.57
2019-02-06T18:44:32.435Z,63.74
2019-02-06T18:47:03.354Z,63.90
2019-02-06T18:49:33.978Z,62.93
2019-02-06T18:52:06.122Z,64.76
2019-02-06T18:54:36.616Z,64.36
2019-02-06T18:57:07.152Z,63.94
2019-02-06T18:59:37.654Z,65.10
2019-02-06T19:02:08.188Z,65.00
2019-02-06T19:04:39.164Z,64.78
2019-02-06T19:07:09.641Z,62.80
2019-02-06T19:09:40.593Z,63.64
2019-02-06T19:12:11.427Z,62.17
2019-02-06T19:14:41.889Z,61.44
2019-02-06T19:17:14.886Z,61.73
2019-02-06T19:19:46.515Z,63.16
2019-02-06T19:22:18.999Z,63.12
2019-02-06T19:24:49.720Z,63.44
2019-02-06T19:27:20.631Z,63.51
2019-02-06T19:29:52.533Z,63.47
2019-02-06T19:32:24.439Z,63.93
2019-02-06T19:34:55.319Z,63.92
2019-02-06T19:37:26.986Z,63.05
2019-02-06T19:39:57.608Z,63.25
2019-02-06T19:42:28.175Z,62.73
2019-02-06T19:44:58.629Z,64.23
2019-02-06T19:47:30.717Z,64.46
2019-02-06T19:50:01.547Z,63.02
2019-02-06T19:52:36.392Z,63.92
2019-02-06T19:55:08.670Z,62.56
2019-02-06T19:57:39.123Z,62.82
2019-02-06T20:00:12.939Z,63.41
2019-02-06T20:02:43.749Z,63.58
2019-02-06T20:05:15.586Z,63.50
2019-02-06T20:07:47.268Z,63.59
2019-02-06T20:10:30.231Z,62.73
2019-02-06T20:13:10.581Z,63.50
2019-02-06T20:15:33.280Z,64.58
2019-02-06T20:18:03.817Z,65.50
2019-02-06T20:20:34.634Z,65.86
2019-02-06T20:23:05.586Z,65.12
2019-02-06T20:25:36.076Z,63.60
2019-02-06T20:28:07.902Z,63.30
2019-02-06T20:30:38.363Z,63.41
2019-02-06T20:33:08.868Z,64.78
2019-02-06T20:35:40.598Z,66.90
2019-02-06T20:38:11.706Z,66.16
2019-02-06T20:40:43.316Z,66.31
2019-02-06T20:43:21.685Z,65.85
2019-02-06T20:45:45.962Z,65.60
2019-02-06T20:48:16.894Z,65.84
2019-02-06T20:50:48.230Z,66.60
2019-02-06T20:53:19.691Z,66.92
2019-02-06T20:55:50.846Z,66.51
2019-02-06T20:58:24.031Z,67.33
2019-02-06T21:00:54.470Z,66.50
2019-02-06T21:03:26.767Z,67.35
2019-02-06T21:05:57.314Z,66.55
2019-02-06T21:08:27.760Z,66.59
2019-02-06T21:10:58.530Z,66.37
2019-02-06T21:13:33.161Z,67.01
2019-02-06T21:16:01.103Z,65.74
2019-02-06T21:18:31.956Z,65.57
2019-02-06T21:21:02.922Z,65.43
2019-02-06T21:23:33.365Z,66.54
2019-02-06T21:26:03.849Z,66.04
2019-02-06T21:28:34.422Z,65.73
2019-02-06T21:31:06.575Z,64.83
2019-02-06T21:33:37.414Z,63.34
2019-02-06T21:36:08.254Z,65.31
2019-02-06T21:38:38.800Z,65.10
2019-02-06T21:41:09.290Z,64.19
2019-02-06T21:43:44.159Z,64.85
2019-02-06T21:46:12.278Z,65.31
2019-02-06T21:48:43.051Z,65.99
2019-02-06T21:51:13.506Z,64.83
2019-02-06T21:53:44.338Z,65.37
2019-02-06T21:56:14.846Z,66.90
2019-02-06T21:58:45.463Z,65.81
2019-02-06T22:01:15.911Z,65.79
2019-02-06T22:03:46.767Z,66.11
2019-02-06T22:06:17.212Z,65.10
2019-02-06T22:08:47.978Z,65.84
2019-02-06T22:11:19.070Z,64.79
2019-02-06T22:13:55.285Z,66.49
2019-02-06T22:16:21.650Z,66.06
2019-02-06T22:18:53.347Z,65.59
2019-02-06T22:21:23.795Z,65.69
2019-02-06T22:23:54.609Z,65.15
2019-02-06T22:26:25.103Z,65.20
2019-02-06T22:28:55.875Z,66.27
2019-02-06T22:31:26.390Z,65.63
2019-02-06T22:33:56.891Z,64.34
2019-02-06T22:36:27.334Z,65.89
2019-02-06T22:38:57.786Z,64.92
2019-02-06T22:41:28.583Z,64.81
2019-02-06T22:44:06.706Z,66.14
2019-02-06T22:46:32.658Z,66.28
2019-02-06T22:49:03.493Z,66.08
2019-02-06T22:51:34.214Z,65.16
2019-02-06T22:54:04.986Z,65.46
2019-02-06T22:56:35.427Z,65.71
2019-02-06T22:59:06.081Z,65.29
2019-02-06T23:01:43.777Z,65.67
2019-02-06T23:04:14.221Z,65.19
2019-02-06T23:06:44.665Z,66.37
2019-02-06T23:09:15.171Z,65.22
2019-02-06T23:11:45.610Z,63.95
2019-02-06T23:14:19.347Z,65.14
2019-02-06T23:16:49.201Z,65.42
2019-02-06T23:19:20.985Z,65.49
2019-02-06T23:21:51.423Z,65.76
2019-02-06T23:24:21.914Z,64.77
2019-02-06T23:26:52.352Z,64.90
2019-02-06T23:29:23.239Z,65.42
2019-02-06T23:31:53.739Z,66.01
2019-02-06T23:34:24.175Z,64.74
2019-02-06T23:36:54.609Z,63.72
2019-02-06T23:39:25.366Z,65.07
2019-02-06T23:41:56.274Z,64.92
2019-02-06T23:44:29.095Z,65.82
2019-02-06T23:46:59.562Z,65.12
2019-02-06T23:49:29.997Z,64.57
2019-02-06T23:52:00.431Z,64.53
2019-02-06T23:54:31.679Z,65.03
2019-02-06T23:57:02.102Z,65.61
2019-02-06T23:59:32.654Z,65.49
